sensor_id;sensor_type;location;lat;lon;timestamp;pressure;altitude;pressure_sealevel;temperature;humidity
51067;BME280;37112;45.892;-123.962;2022-11-15T00:00:00;102400.77;;;13.43;46.67
51067;BME280;37112;45.892;-123.962;2022-11-15T00:02:43;102402.03;;;13.36;47.31
51067;BME280;37112;45.892;-123.962;2022-11-15T00:05:16;102400.58;;;13.30;46.93
51067;BME280;37112;45.892;-123.962;2022-11-15T00:07:45;102401.58;;;13.24;47.60
51067;BME280;37112;45.892;-123.962;2022-11-15T00:10:23;102398.52;;;13.17;47.35
51067;BME280;37112;45.892;-123.962;2022-11-15T00:12:54;102395.25;;;13.11;47.69
51067;BME280;37112;45.892;-123.962;2022-11-15T00:15:26;102397.90;;;13.05;47.33
51067;BME280;37112;45.892;-123.962;2022-11-15T00:17:57;102393.27;;;12.98;47.14
51067;BME280;37112;45.892;-123.962;2022-11-15T00:20:29;102391.68;;;12.91;47.46
51067;BME280;37112;45.892;-123.962;2022-11-15T00:23:02;102392.36;;;12.84;47.72
51067;BME280;37112;45.892;-123.962;2022-11-15T00:25:35;102395.39;;;12.77;47.67
51067;BME280;37112;45.892;-123.962;2022-11-15T00:28:07;102395.83;;;12.72;47.80
51067;BME280;37112;45.892;-123.962;2022-11-15T00:30:38;102400.47;;;12.65;47.85
51067;BME280;37112;45.892;-123.962;2022-11-15T00:33:11;102403.77;;;12.55;47.66
51067;BME280;37112;45.892;-123.962;2022-11-15T00:35:43;102401.70;;;12.47;47.81
51067;BME280;37112;45.892;-123.962;2022-11-15T00:38:15;102404.17;;;12.40;48.10
51067;BME280;37112;45.892;-123.962;2022-11-15T00:40:47;102402.02;;;12.33;47.93
51067;BME280;37112;45.892;-123.962;2022-11-15T00:43:19;102402.38;;;12.25;48.24
51067;BME280;37112;45.892;-123.962;2022-11-15T00:45:50;102404.66;;;12.19;47.87
51067;BME280;37112;45.892;-123.962;2022-11-15T00:48:22;102406.01;;;12.12;47.62
51067;BME280;37112;45.892;-123.962;2022-11-15T00:50:54;102404.72;;;12.10;48.15
51067;BME280;37112;45.892;-123.962;2022-11-15T00:53:26;102402.60;;;12.06;48.34
51067;BME280;37112;45.892;-123.962;2022-11-15T00:55:58;102402.85;;;12.01;48.32
51067;BME280;37112;45.892;-123.962;2022-11-15T00:58:30;102404.86;;;11.91;48.26
51067;BME280;37112;45.892;-123.962;2022-11-15T01:01:08;102403.52;;;11.86;48.41
51067;BME280;37112;45.892;-123.962;2022-11-15T01:03:40;102390.54;;;11.82;48.30
51067;BME280;37112;45.892;-123.962;2022-11-15T01:06:12;102392.50;;;11.77;48.54
51067;BME280;37112;45.892;-123.962;2022-11-15T01:08:44;102399.91;;;11.71;48.61
51067;BME280;37112;45.892;-123.962;2022-11-15T01:11:16;102397.64;;;11.66;48.55
51067;BME280;37112;45.892;-123.962;2022-11-15T01:13:48;102398.61;;;11.60;47.95
51067;BME280;37112;45.892;-123.962;2022-11-15T01:16:20;102401.59;;;11.57;48.35
51067;BME280;37112;45.892;-123.962;2022-11-15T01:18:53;102404.23;;;11.54;48.29
51067;BME280;37112;45.892;-123.962;2022-11-15T01:21:25;102402.77;;;11.51;48.20
51067;BME280;37112;45.892;-123.962;2022-11-15T01:23:57;102404.67;;;11.48;48.43
51067;BME280;37112;45.892;-123.962;2022-11-15T01:26:29;102410.33;;;11.45;48.15
51067;BME280;37112;45.892;-123.962;2022-11-15T01:29:01;102412.52;;;11.43;48.32
51067;BME280;37112;45.892;-123.962;2022-11-15T01:31:31;102408.71;;;11.41;48.05
51067;BME280;37112;45.892;-123.962;2022-11-15T01:34:02;102411.06;;;11.36;48.11
51067;BME280;37112;45.892;-123.962;2022-11-15T01:36:34;102407.92;;;11.31;48.18
51067;BME280;37112;45.892;-123.962;2022-11-15T01:39:06;102419.45;;;11.27;47.97
51067;BME280;37112;45.892;-123.962;2022-11-15T01:41:38;102416.14;;;11.26;47.93
51067;BME280;37112;45.892;-123.962;2022-11-15T01:44:42;102417.16;;;11.23;48.24
51067;BME280;37112;45.892;-123.962;2022-11-15T01:47:16;102416.98;;;11.18;48.06
51067;BME280;37112;45.892;-123.962;2022-11-15T01:49:54;102412.06;;;11.13;48.13
51067;BME280;37112;45.892;-123.962;2022-11-15T01:52:28;102419.77;;;11.08;48.51
51067;BME280;37112;45.892;-123.962;2022-11-15T01:55:05;102424.89;;;11.00;48.80
51067;BME280;37112;45.892;-123.962;2022-11-15T01:57:37;102428.56;;;10.93;48.46
51067;BME280;37112;45.892;-123.962;2022-11-15T02:00:14;102433.11;;;10.91;48.64
51067;BME280;37112;45.892;-123.962;2022-11-15T02:02:46;102432.48;;;10.88;48.76
51067;BME280;37112;45.892;-123.962;2022-11-15T02:05:18;102445.31;;;10.83;48.58
51067;BME280;37112;45.892;-123.962;2022-11-15T02:07:50;102443.81;;;10.77;48.78
51067;BME280;37112;45.892;-123.962;2022-11-15T02:10:23;102442.53;;;10.73;48.65
51067;BME280;37112;45.892;-123.962;2022-11-15T02:12:56;102448.28;;;10.71;48.50
51067;BME280;37112;45.892;-123.962;2022-11-15T02:15:36;102452.20;;;10.71;48.49
51067;BME280;37112;45.892;-123.962;2022-11-15T02:18:22;102451.98;;;10.68;48.70
51067;BME280;37112;45.892;-123.962;2022-11-15T02:21:16;102450.55;;;10.64;48.19
51067;BME280;37112;45.892;-123.962;2022-11-15T02:27:24;102454.37;;;10.62;48.02
51067;BME280;37112;45.892;-123.962;2022-11-15T02:30:16;102462.20;;;10.61;48.10
51067;BME280;37112;45.892;-123.962;2022-11-15T02:32:51;102467.26;;;10.59;48.40
51067;BME280;37112;45.892;-123.962;2022-11-15T02:35:33;102473.26;;;10.55;48.32
51067;BME280;37112;45.892;-123.962;2022-11-15T02:38:12;102477.67;;;10.52;48.75
51067;BME280;37112;45.892;-123.962;2022-11-15T02:40:56;102477.50;;;10.47;48.49
51067;BME280;37112;45.892;-123.962;2022-11-15T02:43:35;102480.13;;;10.44;48.65
51067;BME280;37112;45.892;-123.962;2022-11-15T02:46:28;102483.79;;;10.41;48.49
51067;BME280;37112;45.892;-123.962;2022-11-15T02:49:20;102480.20;;;10.37;48.51
51067;BME280;37112;45.892;-123.962;2022-11-15T02:51:54;102475.48;;;10.35;48.77
51067;BME280;37112;45.892;-123.962;2022-11-15T02:54:28;102478.78;;;10.32;48.96
51067;BME280;37112;45.892;-123.962;2022-11-15T02:57:03;102479.87;;;10.27;48.81
51067;BME280;37112;45.892;-123.962;2022-11-15T02:59:51;102484.45;;;10.23;48.81
51067;BME280;37112;45.892;-123.962;2022-11-15T03:02:36;102483.66;;;10.20;48.92
51067;BME280;37112;45.892;-123.962;2022-11-15T03:05:18;102483.67;;;10.15;49.04
51067;BME280;37112;45.892;-123.962;2022-11-15T03:07:55;102484.59;;;10.09;49.18
51067;BME280;37112;45.892;-123.962;2022-11-15T03:10:36;102484.32;;;10.02;49.16
51067;BME280;37112;45.892;-123.962;2022-11-15T03:13:19;102477.23;;;9.97;49.14
51067;BME280;37112;45.892;-123.962;2022-11-15T03:15:57;102477.06;;;9.92;49.31
51067;BME280;37112;45.892;-123.962;2022-11-15T03:18:36;102485.02;;;9.89;49.50
51067;BME280;37112;45.892;-123.962;2022-11-15T03:21:10;102483.50;;;9.86;48.88
51067;BME280;37112;45.892;-123.962;2022-11-15T03:23:45;102489.89;;;9.86;49.04
51067;BME280;37112;45.892;-123.962;2022-11-15T03:26:19;102487.78;;;9.86;48.93
51067;BME280;37112;45.892;-123.962;2022-11-15T03:28:55;102489.27;;;9.84;48.83
51067;BME280;37112;45.892;-123.962;2022-11-15T03:31:31;102485.27;;;9.82;48.97
51067;BME280;37112;45.892;-123.962;2022-11-15T03:34:24;102483.33;;;9.81;48.87
51067;BME280;37112;45.892;-123.962;2022-11-15T03:36:58;102476.62;;;9.81;48.93
51067;BME280;37112;45.892;-123.962;2022-11-15T03:39:30;102482.10;;;9.81;48.78
51067;BME280;37112;45.892;-123.962;2022-11-15T03:42:08;102483.89;;;9.85;48.42
51067;BME280;37112;45.892;-123.962;2022-11-15T03:44:51;102484.81;;;9.89;48.34
51067;BME280;37112;45.892;-123.962;2022-11-15T03:47:27;102484.63;;;9.94;48.13
51067;BME280;37112;45.892;-123.962;2022-11-15T03:50:03;102485.84;;;10.00;47.90
51067;BME280;37112;45.892;-123.962;2022-11-15T03:52:36;102487.34;;;10.02;47.83
51067;BME280;37112;45.892;-123.962;2022-11-15T03:55:07;102486.08;;;10.08;47.39
51067;BME280;37112;45.892;-123.962;2022-11-15T03:57:39;102481.83;;;10.12;47.38
51067;BME280;37112;45.892;-123.962;2022-11-15T04:00:15;102491.78;;;10.12;47.66
51067;BME280;37112;45.892;-123.962;2022-11-15T04:02:49;102485.10;;;10.10;47.27
51067;BME280;37112;45.892;-123.962;2022-11-15T04:05:18;102487.14;;;10.08;47.29
51067;BME280;37112;45.892;-123.962;2022-11-15T04:07:50;102483.32;;;10.06;47.33
51067;BME280;37112;45.892;-123.962;2022-11-15T04:10:22;102484.41;;;10.05;46.98
51067;BME280;37112;45.892;-123.962;2022-11-15T04:12:54;102480.98;;;10.11;46.99
51067;BME280;37112;45.892;-123.962;2022-11-15T04:15:26;102483.88;;;10.14;47.34
51067;BME280;37112;45.892;-123.962;2022-11-15T04:17:59;102482.73;;;10.12;47.26
51067;BME280;37112;45.892;-123.962;2022-11-15T04:20:32;102490.42;;;10.05;47.26
51067;BME280;37112;45.892;-123.962;2022-11-15T04:23:22;102492.07;;;9.99;47.32
51067;BME280;37112;45.892;-123.962;2022-11-15T04:26:12;102492.92;;;9.95;46.93
51067;BME280;37112;45.892;-123.962;2022-11-15T04:28:47;102500.23;;;9.95;47.15
51067;BME280;37112;45.892;-123.962;2022-11-15T04:31:31;102505.04;;;9.94;47.03
51067;BME280;37112;45.892;-123.962;2022-11-15T04:34:03;102507.27;;;9.91;47.21
51067;BME280;37112;45.892;-123.962;2022-11-15T04:36:34;102506.19;;;9.87;47.23
51067;BME280;37112;45.892;-123.962;2022-11-15T04:39:23;102504.56;;;9.83;47.30
51067;BME280;37112;45.892;-123.962;2022-11-15T04:41:54;102508.44;;;9.78;47.15
51067;BME280;37112;45.892;-123.962;2022-11-15T04:44:26;102514.38;;;9.76;47.13
51067;BME280;37112;45.892;-123.962;2022-11-15T04:47:01;102516.55;;;9.75;47.30
51067;BME280;37112;45.892;-123.962;2022-11-15T04:49:32;102522.31;;;9.72;47.46
51067;BME280;37112;45.892;-123.962;2022-11-15T04:52:05;102525.14;;;9.68;47.52
51067;BME280;37112;45.892;-123.962;2022-11-15T04:54:37;102531.85;;;9.63;47.55
51067;BME280;37112;45.892;-123.962;2022-11-15T04:57:09;102531.81;;;9.59;47.58
51067;BME280;37112;45.892;-123.962;2022-11-15T04:59:41;102529.92;;;9.58;47.65
51067;BME280;37112;45.892;-123.962;2022-11-15T05:02:13;102533.05;;;9.54;47.81
51067;BME280;37112;45.892;-123.962;2022-11-15T05:04:44;102533.14;;;9.52;47.65
51067;BME280;37112;45.892;-123.962;2022-11-15T05:07:17;102535.23;;;9.53;47.47
51067;BME280;37112;45.892;-123.962;2022-11-15T05:09:48;102534.83;;;9.54;47.47
51067;BME280;37112;45.892;-123.962;2022-11-15T05:12:21;102533.61;;;9.53;47.70
51067;BME280;37112;45.892;-123.962;2022-11-15T05:14:53;102537.26;;;9.51;47.77
51067;BME280;37112;45.892;-123.962;2022-11-15T05:17:25;102538.59;;;9.47;47.60
51067;BME280;37112;45.892;-123.962;2022-11-15T05:19:56;102537.40;;;9.46;47.15
51067;BME280;37112;45.892;-123.962;2022-11-15T05:22:29;102535.75;;;9.48;47.40
51067;BME280;37112;45.892;-123.962;2022-11-15T05:25:01;102534.20;;;9.46;47.33
51067;BME280;37112;45.892;-123.962;2022-11-15T05:27:32;102534.12;;;9.44;47.72
51067;BME280;37112;45.892;-123.962;2022-11-15T05:30:05;102539.02;;;9.41;47.79
51067;BME280;37112;45.892;-123.962;2022-11-15T05:32:39;102531.52;;;9.37;47.66
51067;BME280;37112;45.892;-123.962;2022-11-15T05:35:15;102531.61;;;9.34;47.71
51067;BME280;37112;45.892;-123.962;2022-11-15T05:37:50;102535.23;;;9.32;47.82
51067;BME280;37112;45.892;-123.962;2022-11-15T05:40:22;102535.30;;;9.30;47.57
51067;BME280;37112;45.892;-123.962;2022-11-15T05:42:55;102534.34;;;9.32;47.33
51067;BME280;37112;45.892;-123.962;2022-11-15T05:45:27;102538.15;;;9.35;47.44
51067;BME280;37112;45.892;-123.962;2022-11-15T05:48:03;102536.76;;;9.34;47.61
51067;BME280;37112;45.892;-123.962;2022-11-15T05:50:37;102536.70;;;9.30;47.81
51067;BME280;37112;45.892;-123.962;2022-11-15T05:53:10;102534.41;;;9.25;47.85
51067;BME280;37112;45.892;-123.962;2022-11-15T05:55:42;102537.59;;;9.19;47.94
51067;BME280;37112;45.892;-123.962;2022-11-15T05:58:14;102540.79;;;9.14;48.04
51067;BME280;37112;45.892;-123.962;2022-11-15T06:00:49;102541.57;;;9.06;48.12
51067;BME280;37112;45.892;-123.962;2022-11-15T06:03:21;102540.56;;;8.99;48.18
51067;BME280;37112;45.892;-123.962;2022-11-15T06:05:52;102548.20;;;8.92;48.40
51067;BME280;37112;45.892;-123.962;2022-11-15T06:08:26;102550.27;;;8.83;48.55
51067;BME280;37112;45.892;-123.962;2022-11-15T06:11:02;102559.81;;;8.72;48.74
51067;BME280;37112;45.892;-123.962;2022-11-15T06:13:33;102560.13;;;8.61;48.87
51067;BME280;37112;45.892;-123.962;2022-11-15T06:16:06;102560.30;;;8.56;48.98
51067;BME280;37112;45.892;-123.962;2022-11-15T06:18:38;102563.27;;;8.52;49.15
51067;BME280;37112;45.892;-123.962;2022-11-15T06:21:10;102564.77;;;8.43;49.48
51067;BME280;37112;45.892;-123.962;2022-11-15T06:23:42;102563.97;;;8.33;49.70
51067;BME280;37112;45.892;-123.962;2022-11-15T06:26:14;102563.65;;;8.25;49.82
51067;BME280;37112;45.892;-123.962;2022-11-15T06:28:45;102567.37;;;8.19;49.98
51067;BME280;37112;45.892;-123.962;2022-11-15T06:31:17;102564.20;;;8.12;50.33
51067;BME280;37112;45.892;-123.962;2022-11-15T06:33:49;102567.31;;;8.01;50.39
51067;BME280;37112;45.892;-123.962;2022-11-15T06:36:21;102566.86;;;7.92;50.53
51067;BME280;37112;45.892;-123.962;2022-11-15T06:38:53;102567.59;;;7.84;50.71
51067;BME280;37112;45.892;-123.962;2022-11-15T06:41:25;102568.19;;;7.75;51.06
51067;BME280;37112;45.892;-123.962;2022-11-15T06:43:56;102563.13;;;7.66;51.12
51067;BME280;37112;45.892;-123.962;2022-11-15T06:46:29;102566.33;;;7.59;51.48
51067;BME280;37112;45.892;-123.962;2022-11-15T06:49:00;102566.28;;;7.53;51.46
51067;BME280;37112;45.892;-123.962;2022-11-15T06:51:37;102572.54;;;7.50;51.70
51067;BME280;37112;45.892;-123.962;2022-11-15T06:54:09;102571.88;;;7.49;51.57
51067;BME280;37112;45.892;-123.962;2022-11-15T06:56:41;102570.81;;;7.49;51.58
51067;BME280;37112;45.892;-123.962;2022-11-15T06:59:12;102570.25;;;7.50;51.60
51067;BME280;37112;45.892;-123.962;2022-11-15T07:01:44;102572.22;;;7.50;51.44
51067;BME280;37112;45.892;-123.962;2022-11-15T07:04:16;102577.66;;;7.51;51.56
51067;BME280;37112;45.892;-123.962;2022-11-15T07:06:51;102575.03;;;7.50;51.59
51067;BME280;37112;45.892;-123.962;2022-11-15T07:09:22;102573.73;;;7.45;51.68
51067;BME280;37112;45.892;-123.962;2022-11-15T07:11:55;102572.05;;;7.42;51.72
51067;BME280;37112;45.892;-123.962;2022-11-15T07:14:34;102571.42;;;7.38;51.84
51067;BME280;37112;45.892;-123.962;2022-11-15T07:17:08;102573.14;;;7.34;52.01
51067;BME280;37112;45.892;-123.962;2022-11-15T07:19:40;102577.79;;;7.31;51.91
51067;BME280;37112;45.892;-123.962;2022-11-15T07:22:11;102575.42;;;7.27;52.11
51067;BME280;37112;45.892;-123.962;2022-11-15T07:24:43;102578.25;;;7.19;52.33
51067;BME280;37112;45.892;-123.962;2022-11-15T07:27:15;102572.75;;;7.13;52.24
51067;BME280;37112;45.892;-123.962;2022-11-15T07:29:47;102573.91;;;7.09;52.69
51067;BME280;37112;45.892;-123.962;2022-11-15T07:32:18;102575.75;;;7.06;52.67
51067;BME280;37112;45.892;-123.962;2022-11-15T07:34:50;102582.05;;;7.01;52.81
51067;BME280;37112;45.892;-123.962;2022-11-15T07:37:22;102583.39;;;6.95;52.95
51067;BME280;37112;45.892;-123.962;2022-11-15T07:39:53;102580.72;;;6.89;53.26
51067;BME280;37112;45.892;-123.962;2022-11-15T07:42:25;102582.06;;;6.84;53.38
51067;BME280;37112;45.892;-123.962;2022-11-15T07:45:13;102582.53;;;6.79;53.78
51067;BME280;37112;45.892;-123.962;2022-11-15T07:47:47;102578.59;;;6.73;54.06
51067;BME280;37112;45.892;-123.962;2022-11-15T07:50:20;102577.43;;;6.70;54.06
51067;BME280;37112;45.892;-123.962;2022-11-15T07:52:55;102575.85;;;6.69;54.03
51067;BME280;37112;45.892;-123.962;2022-11-15T07:55:28;102579.35;;;6.71;53.94
51067;BME280;37112;45.892;-123.962;2022-11-15T07:58:06;102580.14;;;6.75;53.88
51067;BME280;37112;45.892;-123.962;2022-11-15T08:00:38;102588.66;;;6.81;53.70
51067;BME280;37112;45.892;-123.962;2022-11-15T08:03:11;102592.98;;;6.85;53.54
51067;BME280;37112;45.892;-123.962;2022-11-15T08:05:49;102590.83;;;6.95;53.34
51067;BME280;37112;45.892;-123.962;2022-11-15T08:08:21;102592.09;;;7.02;53.14
51067;BME280;37112;45.892;-123.962;2022-11-15T08:10:56;102602.62;;;7.05;52.99
51067;BME280;37112;45.892;-123.962;2022-11-15T08:13:28;102603.56;;;7.10;52.85
51067;BME280;37112;45.892;-123.962;2022-11-15T08:16:02;102606.80;;;7.15;52.59
51067;BME280;37112;45.892;-123.962;2022-11-15T08:18:35;102597.77;;;7.23;52.52
51067;BME280;37112;45.892;-123.962;2022-11-15T08:21:08;102601.52;;;7.29;52.46
51067;BME280;37112;45.892;-123.962;2022-11-15T08:23:45;102602.11;;;7.34;51.86
51067;BME280;37112;45.892;-123.962;2022-11-15T08:26:17;102604.08;;;7.41;51.89
51067;BME280;37112;45.892;-123.962;2022-11-15T08:28:49;102607.25;;;7.48;51.60
51067;BME280;37112;45.892;-123.962;2022-11-15T08:31:20;102607.81;;;7.53;51.25
51067;BME280;37112;45.892;-123.962;2022-11-15T08:33:52;102603.75;;;7.61;50.99
51067;BME280;37112;45.892;-123.962;2022-11-15T08:36:24;102602.89;;;7.67;50.50
51067;BME280;37112;45.892;-123.962;2022-11-15T08:39:04;102599.84;;;7.75;49.97
51067;BME280;37112;45.892;-123.962;2022-11-15T08:41:37;102598.23;;;7.83;50.15
51067;BME280;37112;45.892;-123.962;2022-11-15T08:44:09;102604.84;;;7.88;49.89
51067;BME280;37112;45.892;-123.962;2022-11-15T08:46:41;102604.94;;;7.91;49.37
51067;BME280;37112;45.892;-123.962;2022-11-15T08:49:12;102603.26;;;7.93;49.46
51067;BME280;37112;45.892;-123.962;2022-11-15T08:51:44;102605.16;;;7.95;49.39
51067;BME280;37112;45.892;-123.962;2022-11-15T08:54:16;102611.69;;;7.96;49.68
51067;BME280;37112;45.892;-123.962;2022-11-15T08:56:48;102609.95;;;7.95;49.62
51067;BME280;37112;45.892;-123.962;2022-11-15T08:59:19;102611.75;;;7.93;49.37
51067;BME280;37112;45.892;-123.962;2022-11-15T09:01:51;102610.88;;;7.92;49.44
51067;BME280;37112;45.892;-123.962;2022-11-15T09:04:24;102608.09;;;7.91;49.38
51067;BME280;37112;45.892;-123.962;2022-11-15T09:06:56;102608.48;;;7.90;49.41
51067;BME280;37112;45.892;-123.962;2022-11-15T09:09:28;102607.98;;;7.89;49.30
51067;BME280;37112;45.892;-123.962;2022-11-15T09:12:01;102608.22;;;7.87;49.47
51067;BME280;37112;45.892;-123.962;2022-11-15T09:14:33;102603.23;;;7.81;49.47
51067;BME280;37112;45.892;-123.962;2022-11-15T09:17:09;102604.16;;;7.79;49.42
51067;BME280;37112;45.892;-123.962;2022-11-15T09:19:41;102610.55;;;7.78;49.48
51067;BME280;37112;45.892;-123.962;2022-11-15T09:22:12;102612.52;;;7.77;49.63
51067;BME280;37112;45.892;-123.962;2022-11-15T09:24:44;102613.45;;;7.75;49.34
51067;BME280;37112;45.892;-123.962;2022-11-15T09:27:16;102609.35;;;7.77;49.11
51067;BME280;37112;45.892;-123.962;2022-11-15T09:29:47;102611.71;;;7.81;48.96
51067;BME280;37112;45.892;-123.962;2022-11-15T09:32:20;102607.20;;;7.85;49.11
51067;BME280;37112;45.892;-123.962;2022-11-15T09:34:51;102607.21;;;7.84;48.85
51067;BME280;37112;45.892;-123.962;2022-11-15T09:37:23;102616.02;;;7.86;48.98
51067;BME280;37112;45.892;-123.962;2022-11-15T09:39:55;102612.83;;;7.87;49.24
51067;BME280;37112;45.892;-123.962;2022-11-15T09:42:41;102614.42;;;7.86;49.02
51067;BME280;37112;45.892;-123.962;2022-11-15T09:45:22;102614.23;;;7.87;49.15
51067;BME280;37112;45.892;-123.962;2022-11-15T09:48:11;102616.73;;;7.86;48.99
51067;BME280;37112;45.892;-123.962;2022-11-15T09:50:50;102623.63;;;7.86;48.73
51067;BME280;37112;45.892;-123.962;2022-11-15T09:53:04;102625.02;;;7.87;48.62
51067;BME280;37112;45.892;-123.962;2022-11-15T09:55:17;102630.11;;;7.88;48.66
51067;BME280;37112;45.892;-123.962;2022-11-15T09:57:37;102628.87;;;7.88;48.83
51067;BME280;37112;45.892;-123.962;2022-11-15T10:00:04;102619.33;;;7.88;48.24
51067;BME280;37112;45.892;-123.962;2022-11-15T10:02:50;102620.25;;;7.93;48.31
51067;BME280;37112;45.892;-123.962;2022-11-15T10:05:11;102620.21;;;7.95;48.38
51067;BME280;37112;45.892;-123.962;2022-11-15T10:07:30;102610.59;;;7.97;47.92
51067;BME280;37112;45.892;-123.962;2022-11-15T10:09:51;102604.64;;;8.01;47.61
51067;BME280;37112;45.892;-123.962;2022-11-15T10:12:09;102597.29;;;8.05;47.33
51067;BME280;37112;45.892;-123.962;2022-11-15T10:14:26;102599.45;;;8.10;47.11
51067;BME280;37112;45.892;-123.962;2022-11-15T10:19:31;102588.65;;;8.23;46.77
51067;BME280;37112;45.892;-123.962;2022-11-15T10:21:53;102593.81;;;8.28;46.14
51067;BME280;37112;45.892;-123.962;2022-11-15T10:24:13;102598.64;;;8.33;45.98
51067;BME280;37112;45.892;-123.962;2022-11-15T10:26:29;102596.77;;;8.38;46.26
51067;BME280;37112;45.892;-123.962;2022-11-15T10:28:42;102600.42;;;8.40;45.81
51067;BME280;37112;45.892;-123.962;2022-11-15T10:30:56;102605.90;;;8.41;46.11
51067;BME280;37112;45.892;-123.962;2022-11-15T10:33:22;102595.80;;;8.42;45.63
51067;BME280;37112;45.892;-123.962;2022-11-15T10:35:37;102605.09;;;8.44;45.60
51067;BME280;37112;45.892;-123.962;2022-11-15T10:37:52;102605.58;;;8.46;45.59
51067;BME280;37112;45.892;-123.962;2022-11-15T10:40:21;102614.56;;;8.47;45.57
51067;BME280;37112;45.892;-123.962;2022-11-15T10:42:34;102610.66;;;8.47;45.38
51067;BME280;37112;45.892;-123.962;2022-11-15T10:44:48;102611.89;;;8.48;45.60
51067;BME280;37112;45.892;-123.962;2022-11-15T10:47:29;102617.02;;;8.48;45.49
51067;BME280;37112;45.892;-123.962;2022-11-15T10:49:56;102617.88;;;8.49;45.29
51067;BME280;37112;45.892;-123.962;2022-11-15T10:52:18;102623.34;;;8.50;45.37
51067;BME280;37112;45.892;-123.962;2022-11-15T10:54:30;102621.10;;;8.53;44.26
51067;BME280;37112;45.892;-123.962;2022-11-15T10:56:51;102624.29;;;8.59;44.65
51067;BME280;37112;45.892;-123.962;2022-11-15T10:59:12;102618.89;;;8.62;44.39
51067;BME280;37112;45.892;-123.962;2022-11-15T11:01:28;102623.62;;;8.65;44.58
51067;BME280;37112;45.892;-123.962;2022-11-15T11:03:43;102614.37;;;8.66;44.27
51067;BME280;37112;45.892;-123.962;2022-11-15T11:06:07;102610.80;;;8.67;44.04
51067;BME280;37112;45.892;-123.962;2022-11-15T11:08:26;102607.61;;;8.67;44.62
51067;BME280;37112;45.892;-123.962;2022-11-15T11:10:40;102614.00;;;8.67;44.60
51067;BME280;37112;45.892;-123.962;2022-11-15T11:13:24;102617.25;;;8.64;44.54
51067;BME280;37112;45.892;-123.962;2022-11-15T11:15:38;102620.06;;;8.65;44.27
51067;BME280;37112;45.892;-123.962;2022-11-15T11:18:13;102624.48;;;8.66;44.22
51067;BME280;37112;45.892;-123.962;2022-11-15T11:20:33;102624.52;;;8.70;44.10
51067;BME280;37112;45.892;-123.962;2022-11-15T11:23:00;102629.29;;;8.71;44.50
51067;BME280;37112;45.892;-123.962;2022-11-15T11:25:36;102613.41;;;8.69;44.06
51067;BME280;37112;45.892;-123.962;2022-11-15T11:28:02;102621.89;;;8.69;43.64
51067;BME280;37112;45.892;-123.962;2022-11-15T11:30:21;102625.19;;;8.72;44.03
51067;BME280;37112;45.892;-123.962;2022-11-15T11:32:53;102616.99;;;8.67;44.43
51067;BME280;37112;45.892;-123.962;2022-11-15T11:35:17;102619.86;;;8.60;44.87
51067;BME280;37112;45.892;-123.962;2022-11-15T11:37:38;102633.37;;;8.52;45.09
51067;BME280;37112;45.892;-123.962;2022-11-15T11:39:59;102635.27;;;8.47;44.80
51067;BME280;37112;45.892;-123.962;2022-11-15T11:42:30;102639.27;;;8.44;44.97
51067;BME280;37112;45.892;-123.962;2022-11-15T11:44:54;102636.67;;;8.42;45.10
51067;BME280;37112;45.892;-123.962;2022-11-15T11:47:14;102637.23;;;8.40;45.44
51067;BME280;37112;45.892;-123.962;2022-11-15T11:49:37;102639.14;;;8.35;45.55
51067;BME280;37112;45.892;-123.962;2022-11-15T11:51:56;102643.55;;;8.28;45.65
51067;BME280;37112;45.892;-123.962;2022-11-15T11:54:17;102648.30;;;8.22;45.81
51067;BME280;37112;45.892;-123.962;2022-11-15T11:56:35;102641.20;;;8.17;45.81
51067;BME280;37112;45.892;-123.962;2022-11-15T11:58:50;102641.70;;;8.12;45.99
51067;BME280;37112;45.892;-123.962;2022-11-15T12:01:17;102643.74;;;8.07;46.26
51067;BME280;37112;45.892;-123.962;2022-11-15T12:03:39;102637.53;;;8.02;46.20
51067;BME280;37112;45.892;-123.962;2022-11-15T12:05:57;102637.69;;;7.96;46.42
51067;BME280;37112;45.892;-123.962;2022-11-15T12:08:31;102634.06;;;7.92;46.29
51067;BME280;37112;45.892;-123.962;2022-11-15T12:10:50;102625.55;;;7.87;46.57
51067;BME280;37112;45.892;-123.962;2022-11-15T12:13:09;102622.45;;;7.83;46.48
51067;BME280;37112;45.892;-123.962;2022-11-15T12:15:27;102622.48;;;7.82;46.88
51067;BME280;37112;45.892;-123.962;2022-11-15T12:17:42;102624.15;;;7.80;46.97
51067;BME280;37112;45.892;-123.962;2022-11-15T12:19:58;102629.98;;;7.79;46.46
51067;BME280;37112;45.892;-123.962;2022-11-15T12:22:19;102632.44;;;7.80;46.76
51067;BME280;37112;45.892;-123.962;2022-11-15T12:24:37;102632.59;;;7.81;47.00
51067;BME280;37112;45.892;-123.962;2022-11-15T12:26:56;102636.38;;;7.78;47.04
51067;BME280;37112;45.892;-123.962;2022-11-15T12:29:15;102641.23;;;7.75;47.09
51067;BME280;37112;45.892;-123.962;2022-11-15T12:31:35;102647.83;;;7.73;47.28
51067;BME280;37112;45.892;-123.962;2022-11-15T12:33:51;102654.78;;;7.70;47.36
51067;BME280;37112;45.892;-123.962;2022-11-15T12:36:33;102661.92;;;7.67;47.39
51067;BME280;37112;45.892;-123.962;2022-11-15T12:38:56;102663.07;;;7.65;47.33
51067;BME280;37112;45.892;-123.962;2022-11-15T12:43:42;102668.66;;;7.60;47.40
51067;BME280;37112;45.892;-123.962;2022-11-15T12:45:56;102669.59;;;7.58;47.48
51067;BME280;37112;45.892;-123.962;2022-11-15T12:51:11;102658.42;;;7.51;47.61
51067;BME280;37112;45.892;-123.962;2022-11-15T12:53:31;102667.38;;;7.47;47.58
51067;BME280;37112;45.892;-123.962;2022-11-15T12:55:46;102665.00;;;7.42;47.71
51067;BME280;37112;45.892;-123.962;2022-11-15T12:58:40;102668.95;;;7.41;47.83